createdAt,value
2022-08-29T00:00:39.976Z,64.84
2022-08-29T00:01:39.955Z,64.24
2022-08-29T00:02:40.023Z,64.54
2022-08-29T00:03:40.751Z,64.04
2022-08-29T00:04:39.971Z,64.75
2022-08-29T00:05:40.144Z,64.75
2022-08-29T00:06:39.897Z,64.64
2022-08-29T00:07:39.894Z,64.54
2022-08-29T00:08:39.883Z,65.15
2022-08-29T00:09:39.865Z,65.85
2022-08-29T00:10:39.869Z,65.05
2022-08-29T00:11:39.860Z,65.05
2022-08-29T00:12:40.830Z,64.54
2022-08-29T00:13:39.827Z,65.88
2022-08-29T00:14:39.816Z,65.28
2022-08-29T00:15:44.581Z,65.18
2022-08-29T00:16:40.894Z,65.68
2022-08-29T00:17:39.787Z,65.38
2022-08-29T00:18:39.768Z,65.28
2022-08-29T00:19:39.761Z,65.21
2022-08-29T00:20:39.759Z,65.99
2022-08-29T00:21:39.734Z,65.88
2022-08-29T00:22:39.729Z,65.71
2022-08-29T00:23:39.711Z,65.92
2022-08-29T00:24:39.700Z,65.61
2022-08-29T00:25:39.703Z,65.92
2022-08-29T00:26:39.685Z,66.22
2022-08-29T00:27:39.667Z,66.02
2022-08-29T00:28:39.665Z,66.32
2022-08-29T00:29:39.650Z,66.32
2022-08-29T00:30:39.654Z,66.08
2022-08-29T00:31:39.707Z,65.81
2022-08-29T00:32:39.617Z,66.32
2022-08-29T00:33:39.601Z,66.62
2022-08-29T00:34:39.595Z,66.72
2022-08-29T00:35:39.621Z,65.92
2022-08-29T00:36:39.574Z,66.22
2022-08-29T00:37:39.564Z,66.52
2022-08-29T00:38:39.552Z,66.12
2022-08-29T00:39:39.541Z,67.43
2022-08-29T00:40:39.580Z,66.62
2022-08-29T00:41:39.542Z,66.45
2022-08-29T00:42:39.506Z,65.81
2022-08-29T00:43:39.505Z,66.42
2022-08-29T00:44:39.489Z,66.32
2022-08-29T00:45:39.543Z,66.45
2022-08-29T00:46:39.459Z,66.05
2022-08-29T00:47:39.445Z,66.96
2022-08-29T00:48:39.439Z,66.62
2022-08-29T00:49:39.425Z,67.02
2022-08-29T00:50:39.426Z,66.32
2022-08-29T00:51:39.409Z,66.75
2022-08-29T00:52:39.420Z,67.23
2022-08-29T00:53:39.387Z,67.06
2022-08-29T00:54:39.369Z,66.96
2022-08-29T00:55:39.380Z,66.86
2022-08-29T00:56:39.352Z,66.93
2022-08-29T00:57:39.341Z,68.47
2022-08-29T00:58:39.325Z,66.75
2022-08-29T00:59:39.312Z,66.89
2022-08-29T01:00:39.414Z,67.06
2022-08-29T01:01:39.297Z,66.86
2022-08-29T01:02:40.567Z,68.17
2022-08-29T01:03:42.608Z,67.26
2022-08-29T01:04:39.265Z,67.49
2022-08-29T01:05:39.292Z,68.40
2022-08-29T01:06:39.244Z,68.20
2022-08-29T01:07:40.775Z,68.10
2022-08-29T01:08:39.225Z,68.20
2022-08-29T01:09:39.208Z,68.00
2022-08-29T01:10:39.202Z,68.10
2022-08-29T01:11:39.182Z,68.30
2022-08-29T01:12:39.170Z,68.30
2022-08-29T01:13:39.163Z,67.90
2022-08-29T01:14:39.145Z,68.10
2022-08-29T01:15:39.157Z,68.13
2022-08-29T01:16:39.160Z,68.23
2022-08-29T01:17:39.125Z,68.13
2022-08-29T01:18:39.102Z,68.54
2022-08-29T01:19:39.092Z,68.13
2022-08-29T01:20:39.095Z,68.13
2022-08-29T01:21:39.079Z,68.33
2022-08-29T01:22:39.057Z,68.30
2022-08-29T01:23:39.045Z,68.00
2022-08-29T01:24:39.041Z,68.23
2022-08-29T01:25:39.051Z,68.13
2022-08-29T01:26:39.012Z,68.10
2022-08-29T01:27:39.001Z,69.51
2022-08-29T01:28:38.991Z,68.43
2022-08-29T01:29:38.979Z,69.65
2022-08-29T01:30:38.981Z,69.62
2022-08-29T01:31:56.087Z,68.94
2022-08-29T01:32:39.953Z,69.04
2022-08-29T01:33:38.939Z,69.75
2022-08-29T01:34:38.931Z,69.65
2022-08-29T01:35:38.932Z,69.78
2022-08-29T01:36:38.909Z,69.68
2022-08-29T01:37:38.894Z,69.48
2022-08-29T01:38:38.884Z,69.48
2022-08-29T01:39:38.865Z,69.89
2022-08-29T01:40:38.984Z,69.78
2022-08-29T01:41:38.843Z,69.58
2022-08-29T01:42:38.845Z,69.07
2022-08-29T01:43:38.820Z,69.98
2022-08-29T01:44:38.817Z,69.38
2022-08-29T01:45:38.862Z,69.78
2022-08-29T01:46:38.790Z,69.98
2022-08-29T01:47:38.815Z,70.39
2022-08-29T01:48:38.773Z,70.09
2022-08-29T01:49:40.591Z,69.89
2022-08-29T01:50:38.743Z,70.49
2022-08-29T01:51:38.734Z,70.02
2022-08-29T01:52:38.745Z,70.09
2022-08-29T01:53:38.716Z,70.39
2022-08-29T01:54:38.714Z,71.00
2022-08-29T01:55:38.688Z,70.49
2022-08-29T01:56:38.676Z,70.02
2022-08-29T01:57:38.685Z,70.09
2022-08-29T01:58:38.659Z,70.09
2022-08-29T01:59:38.641Z,69.98
2022-08-29T02:00:38.647Z,70.39
2022-08-29T02:01:38.681Z,69.68
2022-08-29T02:02:38.621Z,69.98
2022-08-29T02:03:38.593Z,70.42
2022-08-29T02:04:38.582Z,69.71
2022-08-29T02:05:38.571Z,70.22
2022-08-29T02:06:38.562Z,69.92
2022-08-29T02:07:38.565Z,70.32
2022-08-29T02:08:38.539Z,69.92
2022-08-29T02:09:38.531Z,70.12
2022-08-29T02:10:39.521Z,70.32
2022-08-29T02:11:38.507Z,70.32
2022-08-29T02:12:38.538Z,69.92
2022-08-29T02:13:38.489Z,70.42
2022-08-29T02:14:38.474Z,70.52
2022-08-29T02:15:38.456Z,69.81
2022-08-29T02:16:38.511Z,69.92
2022-08-29T02:17:38.445Z,70.52
2022-08-29T02:18:38.428Z,70.52
2022-08-29T02:19:38.409Z,70.32
2022-08-29T02:20:38.409Z,70.73
2022-08-29T02:21:38.387Z,70.93
2022-08-29T02:22:38.396Z,70.96
2022-08-29T02:23:38.363Z,71.23
2022-08-29T02:24:38.361Z,71.23
2022-08-29T02:25:38.347Z,71.26
2022-08-29T02:26:38.337Z,71.47
2022-08-29T02:27:38.339Z,71.06
2022-08-29T02:28:38.314Z,71.47
2022-08-29T02:29:38.545Z,71.47
2022-08-29T02:30:38.297Z,71.57
2022-08-29T02:31:38.294Z,71.16
2022-08-29T02:32:38.282Z,71.47
2022-08-29T02:33:38.253Z,71.57
2022-08-29T02:34:38.247Z,71.50
2022-08-29T02:35:42.561Z,71.47
2022-08-29T02:36:38.215Z,71.57
2022-08-29T02:37:38.219Z,72.08
2022-08-29T02:38:38.193Z,71.77
2022-08-29T02:39:38.182Z,71.80
2022-08-29T02:40:38.250Z,71.37
2022-08-29T02:41:38.158Z,71.26
2022-08-29T02:42:38.207Z,71.47
2022-08-29T02:43:38.133Z,71.60
2022-08-29T02:44:38.126Z,71.67
2022-08-29T02:45:38.113Z,71.60
2022-08-29T02:46:38.146Z,71.57
2022-08-29T02:47:38.105Z,71.50
2022-08-29T02:48:38.090Z,71.20
2022-08-29T02:49:38.072Z,71.57
2022-08-29T02:50:38.056Z,71.16
2022-08-29T02:51:38.051Z,71.06
2022-08-29T02:52:38.084Z,71.67
2022-08-29T02:53:38.096Z,71.70
2022-08-29T02:54:38.021Z,71.60
2022-08-29T02:55:38.051Z,71.16
2022-08-29T02:56:38.001Z,71.40
2022-08-29T02:57:37.987Z,71.57
2022-08-29T02:58:37.983Z,71.70
2022-08-29T02:59:38.010Z,71.30
2022-08-29T03:00:38.003Z,71.50
2022-08-29T03:01:37.958Z,71.37
2022-08-29T03:02:37.959Z,71.47
2022-08-29T03:03:37.916Z,71.60
2022-08-29T03:04:37.895Z,71.91
2022-08-29T03:05:37.890Z,72.21
2022-08-29T03:06:37.874Z,72.11
2022-08-29T03:07:37.881Z,72.11
2022-08-29T03:08:37.852Z,71.80
2022-08-29T03:09:37.842Z,71.80
2022-08-29T03:10:37.826Z,72.11
2022-08-29T03:11:37.826Z,72.11
2022-08-29T03:12:37.849Z,72.21
2022-08-29T03:13:37.798Z,72.11
2022-08-29T03:14:37.782Z,72.61
2022-08-29T03:15:37.777Z,72.11
2022-08-29T03:16:37.812Z,72.21
2022-08-29T03:17:37.766Z,72.01
2022-08-29T03:18:37.745Z,71.97
2022-08-29T03:19:37.730Z,72.21
2022-08-29T03:20:37.720Z,72.01
2022-08-29T03:21:37.706Z,72.72
2022-08-29T03:22:37.715Z,71.80
2022-08-29T03:23:37.678Z,72.01
2022-08-29T03:24:37.669Z,72.01
2022-08-29T03:25:37.661Z,72.01
2022-08-29T03:26:37.652Z,72.11
2022-08-29T03:27:37.656Z,72.41
2022-08-29T03:28:37.630Z,72.11
2022-08-29T03:29:37.617Z,72.52
2022-08-29T03:30:37.608Z,72.21
2022-08-29T03:31:37.680Z,72.11
2022-08-29T03:32:37.596Z,72.41
2022-08-29T03:33:37.572Z,71.70
2022-08-29T03:34:37.554Z,72.11
2022-08-29T03:35:37.541Z,72.52
2022-08-29T03:36:37.538Z,72.41
2022-08-29T03:37:37.535Z,72.21
2022-08-29T03:38:37.516Z,71.91
2022-08-29T03:39:37.497Z,72.11
2022-08-29T03:40:37.535Z,72.21
2022-08-29T03:41:37.478Z,72.55
2022-08-29T03:42:37.484Z,72.85
2022-08-29T03:43:37.473Z,72.72
2022-08-29T03:44:37.439Z,72.96
2022-08-29T03:45:37.433Z,72.92
2022-08-29T03:46:37.537Z,73.16
2022-08-29T03:47:37.429Z,73.25
2022-08-29T03:48:37.403Z,73.97
2022-08-29T03:49:37.389Z,74.17
2022-08-29T03:50:37.376Z,73.56
2022-08-29T03:51:37.357Z,73.86
2022-08-29T03:52:37.358Z,74.27
2022-08-29T03:53:37.386Z,74.30
2022-08-29T03:54:37.335Z,74.21
2022-08-29T03:55:37.313Z,74.00
2022-08-29T03:56:37.303Z,74.30
2022-08-29T03:57:37.298Z,74.81
2022-08-29T03:58:37.281Z,74.91
2022-08-29T03:59:37.294Z,74.74
2022-08-29T04:00:37.259Z,75.05
2022-08-29T04:01:37.283Z,74.85
2022-08-29T04:02:37.299Z,75.12
2022-08-29T04:03:37.231Z,75.35
2022-08-29T04:04:37.227Z,75.15
2022-08-29T04:05:37.211Z,75.15
2022-08-29T04:06:37.192Z,74.95
2022-08-29T04:07:37.189Z,75.15
2022-08-29T04:08:37.171Z,75.05
2022-08-29T04:09:37.180Z,75.25
2022-08-29T04:10:37.156Z,75.25
2022-08-29T04:11:37.137Z,75.35
2022-08-29T04:12:37.131Z,75.70
2022-08-29T04:13:37.118Z,75.90
2022-08-29T04:14:37.124Z,75.86
2022-08-29T04:15:37.096Z,75.96
2022-08-29T04:16:37.150Z,74.95
2022-08-29T04:17:37.080Z,75.35
2022-08-29T04:18:38.062Z,75.39
2022-08-29T04:19:37.057Z,75.56
2022-08-29T04:20:37.062Z,76.00
2022-08-29T04:21:37.043Z,76.10
2022-08-29T04:22:37.020Z,75.76
2022-08-29T04:23:37.007Z,75.79
2022-08-29T04:24:36.996Z,75.79
2022-08-29T04:25:37.585Z,76.00
2022-08-29T04:26:37.802Z,75.90
2022-08-29T04:27:36.974Z,75.79
2022-08-29T04:28:36.953Z,75.70
2022-08-29T04:29:36.948Z,75.79
2022-08-29T04:30:36.947Z,76.31
2022-08-29T04:31:36.993Z,75.59
2022-08-29T04:32:36.923Z,76.10
2022-08-29T04:33:36.904Z,76.00
2022-08-29T04:34:36.895Z,75.79
2022-08-29T04:35:36.900Z,76.81
2022-08-29T04:36:36.867Z,76.71
2022-08-29T04:37:36.853Z,76.10
2022-08-29T04:38:36.844Z,76.81
2022-08-29T04:39:36.840Z,76.81
2022-08-29T04:40:36.912Z,76.75
2022-08-29T04:41:36.811Z,76.51
2022-08-29T04:42:36.806Z,76.40
2022-08-29T04:43:36.794Z,76.85
2022-08-29T04:44:36.787Z,77.42
2022-08-29T04:45:36.788Z,77.93
2022-08-29T04:46:36.798Z,78.94
2022-08-29T04:47:36.741Z,79.04
2022-08-29T04:48:36.735Z,78.44
2022-08-29T04:49:36.736Z,78.53
2022-08-29T04:50:36.723Z,78.33
2022-08-29T04:51:36.700Z,78.23
2022-08-29T04:52:36.695Z,78.13
2022-08-29T04:53:36.681Z,78.44
2022-08-29T04:54:36.671Z,78.53
2022-08-29T04:55:36.669Z,77.69
2022-08-29T04:56:36.641Z,77.38
2022-08-29T04:57:36.628Z,77.08
2022-08-29T04:58:36.622Z,77.48
2022-08-29T04:59:36.615Z,77.59
2022-08-29T05:00:36.612Z,77.18
2022-08-29T05:01:36.679Z,77.08
2022-08-29T05:02:36.655Z,77.18
2022-08-29T05:03:36.570Z,77.28
2022-08-29T05:04:36.558Z,77.28
2022-08-29T05:05:36.552Z,77.48
2022-08-29T05:06:36.535Z,77.08
2022-08-29T05:07:38.170Z,77.04
2022-08-29T05:08:36.506Z,77.18
2022-08-29T05:09:36.494Z,76.98
2022-08-29T05:10:36.499Z,76.67
2022-08-29T05:11:36.474Z,76.78
2022-08-29T05:12:36.468Z,77.14
2022-08-29T05:13:36.450Z,76.74
2022-08-29T05:14:36.439Z,77.14
2022-08-29T05:15:36.464Z,76.94
2022-08-29T05:16:36.421Z,76.64
2022-08-29T05:17:36.409Z,77.25
2022-08-29T05:18:36.397Z,77.65
2022-08-29T05:19:36.381Z,77.34
2022-08-29T05:20:37.383Z,77.65
2022-08-29T05:21:36.367Z,77.65
2022-08-29T05:22:36.354Z,77.65
2022-08-29T05:23:36.335Z,77.86
2022-08-29T05:24:36.335Z,78.16
2022-08-29T05:25:36.336Z,77.65
2022-08-29T05:26:36.310Z,77.31
2022-08-29T05:27:36.297Z,77.21
2022-08-29T05:28:36.282Z,77.11
2022-08-29T05:29:36.269Z,77.11
2022-08-29T05:30:36.283Z,77.21
2022-08-29T05:31:36.272Z,77.41
2022-08-29T05:32:36.236Z,76.94
2022-08-29T05:33:36.223Z,76.60
2022-08-29T05:34:36.215Z,76.70
2022-08-29T05:35:36.222Z,76.70
2022-08-29T05:36:36.196Z,76.70
2022-08-29T05:37:36.185Z,75.99
2022-08-29T05:38:36.167Z,76.56
2022-08-29T05:39:36.157Z,76.06
2022-08-29T05:40:36.211Z,75.49
2022-08-29T05:41:36.477Z,75.59
2022-08-29T05:42:36.128Z,75.55
2022-08-29T05:43:36.110Z,74.95
2022-08-29T05:44:36.097Z,75.35
2022-08-29T05:45:36.111Z,74.95
2022-08-29T05:46:36.122Z,74.84
2022-08-29T05:47:36.067Z,74.74
2022-08-29T05:48:36.063Z,74.30
2022-08-29T05:49:36.051Z,74.30
2022-08-29T05:50:36.053Z,74.81
2022-08-29T05:51:39.451Z,74.20
2022-08-29T05:52:36.012Z,73.90
2022-08-29T05:53:36.006Z,73.90
2022-08-29T05:54:35.988Z,74.00
2022-08-29T05:55:36.004Z,74.10
2022-08-29T05:56:36.216Z,74.00
2022-08-29T05:57:35.960Z,73.80
2022-08-29T05:58:35.949Z,73.29
2022-08-29T05:59:35.930Z,73.80
2022-08-29T06:00:35.921Z,73.90
2022-08-29T06:01:35.959Z,73.90
2022-08-29T06:02:36.067Z,74.10
2022-08-29T06:03:36.124Z,73.49
2022-08-29T06:04:35.880Z,73.49
2022-08-29T06:05:35.864Z,73.80
2022-08-29T06:06:35.873Z,72.99
2022-08-29T06:07:35.851Z,73.69
2022-08-29T06:08:35.834Z,73.39
2022-08-29T06:09:35.830Z,73.49
2022-08-29T06:10:35.808Z,73.69
2022-08-29T06:11:35.818Z,73.15
2022-08-29T06:12:35.785Z,73.19
2022-08-29T06:13:35.783Z,73.29
2022-08-29T06:14:35.761Z,73.15
2022-08-29T06:15:35.776Z,73.25
2022-08-29T06:16:35.754Z,72.55
2022-08-29T06:17:35.729Z,72.51
2022-08-29T06:18:35.916Z,72.41
2022-08-29T06:19:35.728Z,72.17
2022-08-29T06:20:35.697Z,72.08
2022-08-29T06:21:35.697Z,71.84
2022-08-29T06:22:40.026Z,71.53
2022-08-29T06:23:35.665Z,71.44
2022-08-29T06:24:35.658Z,71.23
2022-08-29T06:25:40.022Z,71.23
2022-08-29T06:26:35.649Z,71.30
2022-08-29T06:27:36.143Z,70.19
2022-08-29T06:28:35.617Z,71.37
2022-08-29T06:29:43.002Z,71.06
2022-08-29T06:30:36.634Z,70.46
2022-08-29T06:31:35.600Z,70.46
2022-08-29T06:32:35.580Z,69.85
2022-08-29T06:33:35.565Z,69.75
2022-08-29T06:34:35.556Z,69.24
2022-08-29T06:35:35.535Z,69.45
2022-08-29T06:36:37.172Z,69.04
2022-08-29T06:37:35.513Z,69.24
2022-08-29T06:38:35.507Z,69.75
2022-08-29T06:39:35.491Z,69.42
2022-08-29T06:40:35.527Z,69.35
2022-08-29T06:41:35.489Z,69.52
2022-08-29T06:42:35.453Z,68.98
2022-08-29T06:43:35.448Z,69.01
2022-08-29T06:44:35.434Z,68.71
2022-08-29T06:45:35.416Z,69.52
2022-08-29T06:46:35.475Z,68.88
2022-08-29T06:47:35.394Z,68.48
2022-08-29T06:48:35.380Z,68.57
2022-08-29T06:49:35.380Z,67.87
2022-08-29T06:50:35.359Z,67.97
2022-08-29T06:51:35.372Z,68.17
2022-08-29T06:52:35.605Z,68.27
2022-08-29T06:53:37.337Z,68.37
2022-08-29T06:54:35.312Z,68.27
2022-08-29T06:55:35.309Z,68.07
2022-08-29T06:56:36.724Z,68.27
2022-08-29T06:57:35.290Z,68.41
2022-08-29T06:58:35.266Z,68.48
2022-08-29T06:59:35.262Z,68.57
2022-08-29T07:00:35.253Z,68.27
2022-08-29T07:01:35.324Z,68.37
2022-08-29T07:02:35.369Z,67.87
2022-08-29T07:03:35.219Z,67.97
2022-08-29T07:04:35.204Z,67.97
2022-08-29T07:05:35.197Z,68.21
2022-08-29T07:06:35.198Z,67.97
2022-08-29T07:07:35.274Z,67.87
2022-08-29T07:08:35.173Z,68.01
2022-08-29T07:09:35.148Z,67.77
2022-08-29T07:10:35.137Z,68.10
2022-08-29T07:11:40.357Z,68.01
2022-08-29T07:12:36.120Z,67.77
2022-08-29T07:13:35.104Z,68.07
2022-08-29T07:14:35.092Z,68.07
2022-08-29T07:15:35.100Z,68.07
2022-08-29T07:16:35.074Z,68.17
2022-08-29T07:17:35.050Z,67.27
2022-08-29T07:18:35.041Z,67.13
2022-08-29T07:19:35.036Z,68.37
2022-08-29T07:20:35.022Z,67.87
2022-08-29T07:21:35.024Z,67.03
2022-08-29T07:22:34.999Z,67.16
2022-08-29T07:23:34.995Z,67.43
2022-08-29T07:24:34.978Z,66.93
2022-08-29T07:25:34.965Z,66.63
2022-08-29T07:26:34.966Z,66.73
2022-08-29T07:27:34.947Z,66.80
2022-08-29T07:28:34.928Z,66.83
2022-08-29T07:29:34.919Z,66.70
2022-08-29T07:30:34.958Z,66.42
2022-08-29T07:31:34.906Z,66.70
2022-08-29T07:32:34.876Z,66.60
2022-08-29T07:33:35.174Z,66.80
2022-08-29T07:34:34.857Z,65.89
2022-08-29T07:35:34.845Z,65.69
2022-08-29T07:36:34.903Z,66.19
2022-08-29T07:37:34.825Z,66.30
2022-08-29T07:38:35.727Z,66.06
2022-08-29T07:39:34.839Z,65.96
2022-08-29T07:40:34.867Z,65.76
2022-08-29T07:41:34.791Z,65.76
2022-08-29T07:42:34.775Z,66.27
2022-08-29T07:43:34.761Z,65.86
2022-08-29T07:44:34.791Z,65.73
2022-08-29T07:45:34.851Z,65.62
2022-08-29T07:46:34.737Z,65.83
2022-08-29T07:47:34.742Z,64.72
2022-08-29T07:48:34.718Z,64.62
2022-08-29T07:49:41.014Z,64.59
2022-08-29T07:50:35.689Z,64.22
2022-08-29T07:51:34.687Z,64.09
2022-08-29T07:52:34.881Z,64.39
2022-08-29T07:53:34.647Z,64.29
2022-08-29T07:54:34.627Z,64.29
2022-08-29T07:55:34.624Z,64.59
2022-08-29T07:56:37.923Z,63.65
2022-08-29T07:57:37.057Z,63.48
2022-08-29T07:58:35.588Z,63.25
2022-08-29T07:59:34.584Z,63.05
2022-08-29T08:00:34.566Z,62.85
2022-08-29T08:01:34.704Z,62.55
2022-08-29T08:02:34.627Z,62.32
2022-08-29T08:03:34.528Z,61.94
2022-08-29T08:04:34.527Z,62.35
2022-08-29T08:05:34.506Z,61.85
2022-08-29T08:06:34.572Z,62.24
2022-08-29T08:07:34.496Z,62.32
2022-08-29T08:08:34.503Z,62.42
2022-08-29T08:09:34.463Z,62.92
2022-08-29T08:10:34.459Z,62.79
2022-08-29T08:11:34.480Z,61.99
2022-08-29T08:12:34.446Z,61.99
2022-08-29T08:13:34.427Z,61.49
2022-08-29T08:14:34.959Z,62.08
2022-08-29T08:15:34.404Z,61.18
2022-08-29T08:16:34.439Z,61.15
2022-08-29T08:17:34.401Z,61.05
2022-08-29T08:18:34.368Z,59.85
2022-08-29T08:19:34.358Z,59.85
2022-08-29T08:20:34.345Z,59.85
2022-08-29T08:21:34.328Z,60.45
2022-08-29T08:22:34.355Z,59.67
2022-08-29T08:23:34.314Z,60.05
2022-08-29T08:24:34.304Z,60.15
2022-08-29T08:25:34.284Z,59.22
2022-08-29T08:26:34.280Z,59.12
2022-08-29T08:27:37.042Z,59.42
2022-08-29T08:28:35.256Z,59.42
2022-08-29T08:29:34.241Z,59.32
2022-08-29T08:30:35.754Z,59.19
2022-08-29T08:31:34.298Z,59.29
2022-08-29T08:32:34.221Z,57.89
2022-08-29T08:33:35.608Z,59.29
2022-08-29T08:34:35.741Z,58.59
2022-08-29T08:35:34.172Z,58.99
2022-08-29T08:36:37.610Z,57.86
2022-08-29T08:37:35.163Z,57.56
2022-08-29T08:38:34.140Z,58.16
2022-08-29T08:39:34.148Z,57.83
2022-08-29T08:40:34.151Z,57.73
2022-08-29T08:41:34.121Z,57.33
2022-08-29T08:42:34.115Z,57.13
2022-08-29T08:43:34.090Z,57.33
2022-08-29T08:44:35.122Z,57.23
2022-08-29T08:45:34.069Z,57.20
2022-08-29T08:46:34.050Z,57.00
2022-08-29T08:47:34.064Z,56.80
2022-08-29T08:48:34.041Z,56.77
2022-08-29T08:49:34.018Z,56.98
2022-08-29T08:50:34.005Z,56.87
2022-08-29T08:51:33.995Z,56.65
2022-08-29T08:52:34.014Z,55.52
2022-08-29T08:53:33.972Z,55.09
2022-08-29T08:54:33.973Z,55.19
2022-08-29T08:55:33.957Z,54.60
2022-08-29T08:56:33.936Z,54.17
2022-08-29T08:57:33.941Z,54.57
2022-08-29T08:58:33.924Z,53.84
2022-08-29T08:59:33.921Z,52.55
2022-08-29T09:00:33.894Z,53.04
2022-08-29T09:01:33.933Z,53.14
2022-08-29T09:02:34.037Z,53.64
2022-08-29T09:03:33.872Z,53.52
2022-08-29T09:04:33.864Z,52.84
2022-08-29T09:05:33.844Z,53.61
2022-08-29T09:06:33.834Z,53.81
2022-08-29T09:07:33.828Z,53.49
2022-08-29T09:08:33.808Z,52.97
2022-08-29T09:09:33.795Z,52.55
2022-08-29T09:10:33.799Z,52.34
2022-08-29T09:11:33.783Z,51.52
2022-08-29T09:12:33.780Z,51.52
2022-08-29T09:13:33.752Z,50.80
2022-08-29T09:14:33.747Z,51.40
2022-08-29T09:15:33.737Z,51.50
2022-08-29T09:16:33.748Z,50.25
2022-08-29T09:17:36.434Z,49.55
2022-08-29T09:18:35.265Z,49.51
2022-08-29T09:19:33.689Z,48.52
2022-08-29T09:20:33.676Z,48.59
2022-08-29T09:21:41.880Z,48.39
2022-08-29T09:22:34.667Z,47.70
2022-08-29T09:23:33.659Z,48.47
2022-08-29T09:24:33.637Z,47.87
2022-08-29T09:25:33.622Z,47.85
2022-08-29T09:26:33.612Z,48.22
2022-08-29T09:27:33.614Z,46.93
2022-08-29T09:28:33.584Z,45.92
2022-08-29T09:29:33.586Z,45.92
2022-08-29T09:30:33.573Z,46.07
2022-08-29T09:31:33.632Z,46.07
2022-08-29T09:32:33.564Z,45.65
2022-08-29T09:33:33.538Z,44.94
2022-08-29T09:34:50.875Z,43.80
2022-08-29T09:35:34.600Z,45.19
2022-08-29T09:36:33.505Z,43.79
2022-08-29T09:37:33.521Z,43.66
2022-08-29T09:38:33.485Z,43.27
2022-08-29T09:39:33.472Z,42.46
2022-08-29T09:40:33.506Z,43.55
2022-08-29T09:41:33.446Z,42.24
2022-08-29T09:42:33.450Z,41.83
2022-08-29T09:43:33.429Z,40.84
2022-08-29T09:44:33.418Z,41.31
2022-08-29T09:45:33.479Z,41.49
2022-08-29T09:46:33.388Z,40.61
2022-08-29T09:47:33.391Z,40.90
2022-08-29T09:48:35.525Z,41.17
2022-08-29T09:49:33.371Z,40.58
2022-08-29T09:50:33.343Z,40.08
2022-08-29T09:51:33.335Z,40.37
2022-08-29T09:52:33.340Z,39.17
2022-08-29T09:53:33.316Z,39.44
2022-08-29T09:54:33.303Z,39.23
2022-08-29T09:55:33.295Z,38.82
2022-08-29T09:56:33.287Z,38.92
2022-08-29T09:57:33.290Z,38.92
2022-08-29T09:58:37.512Z,38.82
2022-08-29T09:59:34.660Z,37.34
2022-08-29T10:00:33.244Z,37.92
2022-08-29T10:01:36.596Z,37.92
2022-08-29T10:02:33.307Z,37.60
2022-08-29T10:03:33.205Z,37.70
2022-08-29T10:04:33.198Z,36.82
2022-08-29T10:05:33.182Z,36.90
2022-08-29T10:06:33.184Z,36.58
2022-08-29T10:07:33.183Z,36.58
2022-08-29T10:08:33.154Z,36.57
2022-08-29T10:09:33.145Z,36.27
2022-08-29T10:10:33.137Z,36.25
2022-08-29T10:11:33.128Z,36.25
2022-08-29T10:12:33.123Z,36.33
2022-08-29T10:13:34.199Z,35.75
2022-08-29T10:14:33.095Z,35.75
2022-08-29T10:15:49.810Z,34.88
2022-08-29T10:16:34.207Z,35.31
2022-08-29T10:17:33.068Z,35.55
2022-08-29T10:18:33.045Z,37.34
2022-08-29T10:19:34.572Z,36.75
2022-08-29T10:20:33.032Z,37.16
2022-08-29T10:21:33.025Z,37.85
2022-08-29T10:22:33.031Z,37.76
2022-08-29T10:23:33.001Z,37.65
2022-08-29T10:24:32.983Z,37.26
2022-08-29T10:25:32.971Z,37.99
2022-08-29T10:26:32.970Z,39.09
2022-08-29T10:27:32.990Z,38.99
2022-08-29T10:28:32.941Z,38.79
2022-08-29T10:29:32.932Z,38.89
2022-08-29T10:30:32.940Z,37.81
2022-08-29T10:31:32.943Z,38.60
2022-08-29T10:32:32.921Z,37.79
2022-08-29T10:33:32.888Z,37.40
2022-08-29T10:34:32.884Z,37.89
2022-08-29T10:35:32.866Z,38.17
2022-08-29T10:36:32.865Z,37.48
2022-08-29T10:37:32.866Z,37.76
2022-08-29T10:38:32.843Z,37.87
2022-08-29T10:39:32.830Z,38.17
2022-08-29T10:40:32.883Z,36.57
2022-08-29T10:41:32.802Z,37.97
2022-08-29T10:42:32.815Z,36.69
2022-08-29T10:43:32.779Z,36.51
2022-08-29T10:44:32.781Z,36.90
2022-08-29T10:45:32.807Z,36.41
2022-08-29T10:46:32.750Z,37.08
2022-08-29T10:47:32.763Z,36.59
2022-08-29T10:48:32.730Z,37.48
2022-08-29T10:49:32.725Z,38.26
2022-08-29T10:50:46.451Z,37.79
2022-08-29T10:51:33.708Z,37.30
2022-08-29T10:52:32.702Z,37.69
2022-08-29T10:53:32.684Z,37.99
2022-08-29T10:54:32.677Z,37.61
2022-08-29T10:55:32.667Z,37.61
2022-08-29T10:56:32.648Z,37.83
2022-08-29T10:57:32.655Z,39.03
2022-08-29T10:58:32.636Z,39.54
2022-08-29T10:59:32.621Z,38.77
2022-08-29T11:00:32.614Z,39.38
2022-08-29T11:01:32.678Z,40.01
2022-08-29T11:02:32.601Z,40.94
2022-08-29T11:03:32.581Z,42.52
2022-08-29T11:04:32.564Z,41.93
2022-08-29T11:05:32.552Z,41.71
2022-08-29T11:06:32.614Z,41.30
2022-08-29T11:07:32.556Z,41.30
2022-08-29T11:08:32.538Z,40.31
2022-08-29T11:09:32.522Z,41.36
2022-08-29T11:10:32.505Z,39.70
2022-08-29T11:11:32.496Z,40.19
2022-08-29T11:12:32.502Z,40.29
2022-08-29T11:13:32.474Z,41.28
2022-08-29T11:14:32.465Z,40.76
2022-08-29T11:15:32.451Z,40.17
2022-08-29T11:16:32.605Z,40.07
2022-08-29T11:17:32.468Z,40.05
2022-08-29T11:18:32.434Z,39.84
2022-08-29T11:19:32.425Z,40.53
2022-08-29T11:20:32.402Z,39.42
2022-08-29T11:21:32.381Z,39.32
2022-08-29T11:22:32.385Z,39.32
2022-08-29T11:23:32.377Z,39.23
2022-08-29T11:24:34.821Z,39.12
2022-08-29T11:25:32.340Z,39.01
2022-08-29T11:26:32.336Z,39.09
2022-08-29T11:27:32.357Z,38.49
2022-08-29T11:28:32.318Z,38.10
2022-08-29T11:29:32.312Z,38.40
2022-08-29T11:30:35.208Z,38.01
2022-08-29T11:31:33.354Z,38.49
2022-08-29T11:32:32.291Z,38.10
2022-08-29T11:33:32.261Z,37.51
2022-08-29T11:34:32.253Z,38.40
2022-08-29T11:35:32.233Z,37.41
2022-08-29T11:36:32.228Z,37.81
2022-08-29T11:37:32.212Z,38.49
2022-08-29T11:38:32.223Z,38.09
2022-08-29T11:39:33.344Z,37.71
2022-08-29T11:40:48.082Z,37.59
2022-08-29T11:41:33.822Z,37.89
2022-08-29T11:43:33.162Z,37.67
2022-08-29T11:44:32.148Z,37.77
2022-08-29T11:45:36.582Z,37.95
2022-08-29T11:46:33.170Z,38.07
2022-08-29T11:47:32.124Z,38.26
2022-08-29T11:48:33.122Z,37.76
2022-08-29T11:49:32.093Z,37.65
2022-08-29T11:50:32.088Z,37.65
2022-08-29T11:51:32.107Z,37.85
2022-08-29T11:52:32.058Z,37.16
2022-08-29T11:53:32.062Z,37.46
2022-08-29T11:54:32.035Z,37.18
2022-08-29T11:55:32.032Z,37.18
2022-08-29T11:56:32.023Z,37.89
2022-08-29T11:57:32.007Z,37.59
2022-08-29T11:58:32.004Z,38.58
2022-08-29T11:59:31.983Z,37.30
2022-08-29T12:00:32.028Z,37.48
2022-08-29T12:01:31.968Z,37.55
2022-08-29T12:02:31.957Z,37.95
2022-08-29T12:03:32.252Z,37.95
2022-08-29T12:04:31.975Z,37.16
2022-08-29T12:05:31.916Z,36.38
2022-08-29T12:06:31.933Z,37.57
2022-08-29T12:07:31.900Z,37.59
2022-08-29T12:08:36.923Z,37.59
2022-08-29T12:09:32.885Z,37.41
2022-08-29T12:10:31.867Z,37.51
2022-08-29T12:11:31.859Z,38.02
2022-08-29T12:12:31.852Z,37.43
2022-08-29T12:13:31.854Z,37.85
2022-08-29T12:14:37.322Z,38.06
2022-08-29T12:15:32.848Z,37.87
2022-08-29T12:16:31.907Z,38.06
2022-08-29T12:17:58.294Z,38.87
2022-08-29T12:18:36.311Z,38.87
2022-08-29T12:19:31.768Z,39.04
2022-08-29T12:20:31.759Z,38.73
2022-08-29T12:21:31.753Z,38.51
2022-08-29T12:22:31.769Z,38.10
2022-08-29T12:23:31.760Z,37.61
2022-08-29T12:24:31.716Z,37.49
2022-08-29T12:25:31.705Z,37.87
2022-08-29T12:26:31.695Z,37.18
2022-08-29T12:27:31.689Z,36.77
2022-08-29T12:28:31.709Z,36.18
2022-08-29T12:29:31.668Z,35.78
2022-08-29T12:30:31.672Z,36.77
2022-08-29T12:31:31.693Z,36.87
2022-08-29T12:32:31.932Z,37.15
2022-08-29T12:33:31.627Z,36.24
2022-08-29T12:34:31.636Z,36.15
2022-08-29T12:35:31.596Z,36.34
2022-08-29T12:36:31.624Z,36.93
2022-08-29T12:37:31.578Z,35.66
2022-08-29T12:38:31.574Z,35.16
2022-08-29T12:39:31.559Z,36.22
2022-08-29T12:40:31.679Z,35.44
2022-08-29T12:41:31.539Z,35.54
2022-08-29T12:42:31.538Z,35.93
2022-08-29T12:43:31.520Z,35.14
2022-08-29T12:44:31.510Z,34.95
2022-08-29T12:45:31.504Z,35.52
2022-08-29T12:46:31.550Z,34.26
2022-08-29T12:47:31.469Z,34.66
2022-08-29T12:48:31.467Z,35.57
2022-08-29T12:49:31.461Z,35.30
2022-08-29T12:50:31.468Z,35.51
2022-08-29T12:51:31.437Z,35.63
2022-08-29T12:52:31.427Z,35.64
2022-08-29T12:53:31.406Z,36.43